Time;durP1;ratioP1;P1;durP2;ratioP2;P2;SDS_P1;SDS_P2;PMS_P1;PMS_P2;Temp;Humidity;BMP_temperature;BMP_pressure;BME280_temperature;BME280_humidity;BME280_pressure;Samples;Min_cycle;Max_cycle;Signal;HPM_P1;HPM_P2
2022/12/23 00:01:07;;;;;;;58.93;29.73;;;;;;;3.50;57.68;101151.41;5020830;28;20391;-78
2022/12/23 00:03:33;;;;;;;56.45;29.42;;;;;;;3.63;57.68;101149.53;5017781;28;20394;-77
2022/12/23 00:05:59;;;;;;;57.97;29.50;;;;;;;3.66;56.94;101145.03;4993982;28;20395;-78
2022/12/23 00:08:26;;;;;;;61.50;29.77;;;;;;;3.63;57.34;101153.94;5015499;28;20446;-78
2022/12/23 00:10:55;;;;;;;60.55;30.10;;;;;;;3.41;57.27;101152.91;5015086;28;20391;-78
2022/12/23 00:16:13;;;;;;;59.80;30.83;;;;;;;3.61;57.30;101150.63;5019169;28;20717;-79
2022/12/23 00:18:40;;;;;;;66.63;33.17;;;;;;;3.62;57.22;101136.56;5016190;28;20381;-78
2022/12/23 00:21:09;;;;;;;68.80;34.10;;;;;;;3.67;57.26;101149.31;5012573;28;20376;-78
2022/12/23 00:23:37;;;;;;;65.22;32.70;;;;;;;3.66;57.34;101151.09;5017504;28;20447;-78
2022/12/23 00:26:02;;;;;;;66.20;32.63;;;;;;;3.64;57.04;101145.97;5013880;28;20389;-78
2022/12/23 00:28:29;;;;;;;64.40;32.53;;;;;;;3.66;56.76;101145.88;5011712;28;20384;-78
2022/12/23 00:31:00;;;;;;;65.13;32.75;;;;;;;3.70;56.90;101139.44;5014823;28;20593;-78
2022/12/23 00:33:37;;;;;;;67.68;32.75;;;;;;;3.72;56.72;101137.53;5014710;28;20396;-78
2022/12/23 00:36:32;;;;;;;65.93;32.15;;;;;;;3.74;56.45;101143.50;5015182;28;20476;-78
2022/12/23 00:44:27;;;;;;;71.18;33.55;;;;;;;3.60;56.63;101122.72;5013026;28;20380;-78
2022/12/23 00:46:53;;;;;;;69.03;32.95;;;;;;;3.63;56.62;101143.47;5012507;28;20372;-78
2022/12/23 00:52:05;;;;;;;64.53;34.95;;;;;;;3.42;57.30;101138.00;5022896;28;20393;-78
2022/12/23 00:54:31;;;;;;;64.38;33.45;;;;;;;3.38;57.19;101129.53;5029369;28;20511;-79
2022/12/23 00:56:57;;;;;;;70.97;36.30;;;;;;;3.33;57.28;101126.44;5033241;28;20386;-79
2022/12/23 00:59:23;;;;;;;66.07;32.90;;;;;;;3.40;57.38;101127.66;5024714;28;20383;-78
2022/12/23 01:07:33;;;;;;;56.88;32.67;;;;;;;3.24;57.59;101129.72;4993227;28;20393;-79
2022/12/23 01:09:58;;;;;;;48.13;25.80;;;;;;;3.20;57.60;101120.41;5023019;28;20449;-79
2022/12/23 01:12:24;;;;;;;44.10;26.23;;;;;;;3.10;57.90;101119.41;5031878;28;20433;-79
2022/12/23 01:14:49;;;;;;;39.27;20.87;;;;;;;3.01;58.27;101116.53;5030314;28;20406;-79
2022/12/23 01:17:15;;;;;;;37.90;21.37;;;;;;;3.03;58.41;101113.81;5032133;28;20393;-78
2022/12/23 01:19:40;;;;;;;40.77;22.97;;;;;;;3.05;58.06;101112.72;5030132;28;20447;-77
2022/12/23 01:22:06;;;;;;;36.63;21.10;;;;;;;3.05;58.28;101114.53;5027243;28;20937;-78
2022/12/23 01:24:32;;;;;;;33.35;18.20;;;;;;;3.10;58.39;101122.88;5031804;28;20786;-77
2022/12/23 01:26:58;;;;;;;40.28;20.77;;;;;;;3.18;57.94;101114.47;5014306;28;20379;-78
2022/12/23 01:29:24;;;;;;;39.43;20.23;;;;;;;3.23;58.12;101128.06;5029340;28;20561;-78
2022/12/23 01:31:49;;;;;;;36.67;19.33;;;;;;;3.18;58.23;101119.69;5028542;28;20407;-78
2022/12/23 01:34:15;;;;;;;42.85;20.33;;;;;;;3.15;58.46;101114.69;5026381;28;20412;-78
2022/12/23 01:36:41;;;;;;;42.40;20.25;;;;;;;3.09;58.51;101117.75;5029138;28;20376;-78
2022/12/23 01:39:06;;;;;;;41.33;20.33;;;;;;;3.10;58.33;101109.78;5029707;28;20440;-78
2022/12/23 01:44:54;;;;;;;45.78;21.88;;;;;;;3.20;58.52;101112.56;5023904;28;20657;-79
2022/12/23 01:47:22;;;;;;;47.95;23.92;;;;;;;3.25;58.19;101110.44;5030701;28;20363;-78
2022/12/23 01:49:52;;;;;;;48.28;23.08;;;;;;;3.33;58.01;101121.22;5027172;28;20382;-78
2022/12/23 01:52:17;;;;;;;51.63;24.77;;;;;;;3.28;58.21;101112.00;5032848;28;20443;-79
2022/12/23 01:54:43;;;;;;;50.50;25.13;;;;;;;3.22;58.45;101108.91;5029667;28;20410;-78
2022/12/23 01:57:10;;;;;;;50.45;24.60;;;;;;;3.21;58.37;101101.16;5026714;28;20474;-77
2022/12/23 02:05:04;;;;;;;58.93;26.33;;;;;;;3.32;58.37;101097.75;5011898;28;20449;-77
2022/12/23 02:10:15;;;;;;;54.30;26.60;;;;;;;3.42;57.91;101094.31;5023598;28;20886;-78
2022/12/23 02:12:45;;;;;;;53.73;24.40;;;;;;;3.42;58.02;101089.09;5023385;28;20380;-78
2022/12/23 02:18:17;;;;;;;55.67;25.55;;;;;;;3.45;58.23;101088.81;5029185;28;20443;-78
2022/12/23 02:21:10;;;;;;;55.58;25.75;;;;;;;3.23;58.20;101099.25;5029409;28;20418;-78
2022/12/23 02:23:47;;;;;;;70.05;31.40;;;;;;;3.22;58.73;101085.31;5024584;28;20456;-78
2022/12/23 02:26:50;;;;;;;70.20;29.58;;;;;;;3.40;58.47;101095.38;5026154;28;20688;-78
2022/12/23 02:29:41;;;;;;;69.57;30.40;;;;;;;3.34;58.57;101080.94;5025002;28;20638;-78
2022/12/23 02:32:39;;;;;;;71.93;30.17;;;;;;;3.38;58.33;101095.47;5022091;28;20436;-78
2022/12/23 02:35:29;;;;;;;72.97;32.40;;;;;;;3.52;58.20;101091.00;4988195;28;20402;-78
2022/12/23 02:38:33;;;;;;;67.22;29.00;;;;;;;3.40;57.87;101093.59;5029320;28;21074;-77
2022/12/23 02:41:26;;;;;;;79.25;32.85;;;;;;;3.14;58.75;101106.00;5004923;28;20391;-78
2022/12/23 02:43:54;;;;;;;73.73;32.47;;;;;;;3.11;59.13;101100.97;5026625;28;20457;-78
2022/12/23 02:46:32;;;;;;;74.13;30.67;;;;;;;3.18;58.86;101096.94;5035791;28;20386;-77
2022/12/23 02:49:07;;;;;;;71.57;30.88;;;;;;;3.34;58.69;101099.28;5023981;28;20888;-78
2022/12/23 02:51:37;;;;;;;78.70;33.63;;;;;;;3.47;58.54;101093.97;5016346;28;20380;-77
2022/12/23 02:54:07;;;;;;;74.87;33.87;;;;;;;3.53;58.15;101082.19;5016913;28;20546;-77
2022/12/23 02:56:37;;;;;;;70.43;31.63;;;;;;;3.58;58.35;101087.91;5018346;28;20410;-77
2022/12/23 02:59:14;;;;;;;71.88;31.55;;;;;;;3.57;58.02;101084.47;5020885;28;20460;-78
2022/12/23 03:01:41;;;;;;;68.88;31.25;;;;;;;3.54;58.13;101095.19;5006348;28;20402;-77
2022/12/23 03:04:07;;;;;;;71.38;31.80;;;;;;;3.50;58.22;101104.22;5034606;28;20463;-77
2022/12/23 03:06:40;;;;;;;71.82;31.80;;;;;;;3.48;58.06;101100.88;5034594;28;20882;-78
2022/12/23 03:09:06;;;;;;;71.97;32.03;;;;;;;3.59;57.98;101102.72;5026230;28;20760;-78
2022/12/23 03:12:03;;;;;;;73.80;32.60;;;;;;;3.63;57.56;101099.72;5004348;28;20402;-76
2022/12/23 03:14:40;;;;;;;81.32;35.97;;;;;;;3.68;57.66;101109.06;5031527;28;20417;-77
2022/12/23 03:17:45;;;;;;;76.20;33.88;;;;;;;3.70;57.85;101104.53;5030756;28;20453;-77
2022/12/23 03:20:18;;;;;;;74.20;32.95;;;;;;;3.75;57.43;101103.22;5017584;28;20384;-77
2022/12/23 03:23:05;;;;;;;72.47;33.30;;;;;;;3.71;57.53;101093.94;5027972;28;20461;-77
2022/12/23 03:25:46;;;;;;;71.80;32.13;;;;;;;3.74;57.53;101112.03;5027247;28;20398;-77
2022/12/23 03:28:22;;;;;;;71.75;34.38;;;;;;;3.72;57.15;101092.97;5019939;28;20402;-78
2022/12/23 03:30:53;;;;;;;74.70;33.17;;;;;;;3.71;57.24;101088.69;5030360;28;20799;-77
2022/12/23 03:33:24;;;;;;;71.70;33.38;;;;;;;3.69;57.28;101090.59;5030926;28;20405;-77
2022/12/23 03:35:58;;;;;;;69.28;32.45;;;;;;;3.77;56.93;101092.63;5027968;28;20808;-77
2022/12/23 03:38:25;;;;;;;72.20;33.00;;;;;;;3.81;57.33;101099.28;5029906;28;20394;-77
2022/12/23 03:40:58;;;;;;;76.40;39.22;;;;;;;3.80;57.22;101081.91;5014149;28;20473;-77
2022/12/23 03:43:33;;;;;;;73.65;33.50;;;;;;;3.77;56.99;101084.75;5032439;28;20414;-78
2022/12/23 03:46:07;;;;;;;77.90;34.03;;;;;;;3.86;57.07;101085.84;5027116;28;20457;-78
2022/12/23 03:48:47;;;;;;;79.38;34.63;;;;;;;3.88;57.09;101083.94;5023040;28;20398;-77
2022/12/23 03:51:21;;;;;;;78.03;37.22;;;;;;;3.83;57.41;101084.28;5013220;28;20493;-77
2022/12/23 03:53:53;;;;;;;78.22;38.55;;;;;;;3.85;57.09;101090.22;5015076;28;21164;-78
2022/12/23 03:56:27;;;;;;;96.60;47.13;;;;;;;3.72;57.22;101084.25;5033279;28;20402;-77
2022/12/23 03:58:55;;;;;;;99.43;45.53;;;;;;;3.58;58.00;101083.53;5032740;28;20447;-78
2022/12/23 04:01:44;;;;;;;82.55;42.05;;;;;;;3.69;57.77;101076.63;5035040;28;20846;-79
2022/12/23 04:04:22;;;;;;;82.88;39.85;;;;;;;3.72;57.54;101073.78;5024656;28;20705;-76
2022/12/23 04:06:56;;;;;;;88.10;42.00;;;;;;;3.75;57.42;101084.88;5024018;28;20379;-77
2022/12/23 04:09:25;;;;;;;86.57;41.70;;;;;;;3.79;57.56;101077.59;5028898;28;20848;-77
2022/12/23 04:11:51;;;;;;;89.15;42.08;;;;;;;3.88;57.28;101081.31;5022868;28;20382;-78
2022/12/23 04:14:21;;;;;;;79.97;38.20;;;;;;;3.88;57.13;101079.50;5013927;28;20406;-78
2022/12/23 04:16:48;;;;;;;84.97;39.10;;;;;;;3.89;56.81;101073.34;5031631;28;20382;-78
2022/12/23 04:19:14;;;;;;;80.57;40.38;;;;;;;3.92;57.24;101088.81;5014129;28;20422;-78
2022/12/23 04:21:39;;;;;;;86.53;39.38;;;;;;;3.88;57.15;101086.56;5031295;28;20418;-78
2022/12/23 04:24:05;;;;;;;78.47;39.85;;;;;;;3.88;56.99;101078.69;5031742;28;20375;-78
2022/12/23 04:26:31;;;;;;;85.57;51.55;;;;;;;3.88;56.60;101074.28;5031948;28;20378;-78
2022/12/23 04:28:56;;;;;;;81.68;46.65;;;;;;;3.85;56.71;101068.44;5033206;28;20851;-79
2022/12/23 04:31:21;;;;;;;72.50;35.57;;;;;;;3.86;56.56;101075.34;5035592;28;20414;-79
2022/12/23 04:33:47;;;;;;;75.97;38.93;;;;;;;3.82;56.47;101062.47;5018127;28;20409;-79
2022/12/23 04:36:12;;;;;;;73.05;36.42;;;;;;;3.76;57.01;101067.34;5035564;28;20906;-79
2022/12/23 04:38:38;;;;;;;68.88;35.05;;;;;;;3.79;56.63;101067.94;5034697;28;20388;-79
2022/12/23 04:41:03;;;;;;;70.50;35.57;;;;;;;3.81;56.92;101073.06;5032271;28;20468;-79
2022/12/23 04:43:29;;;;;;;72.60;36.40;;;;;;;3.83;56.47;101077.25;5037042;28;20913;-78
2022/12/23 04:45:54;;;;;;;76.60;37.90;;;;;;;3.67;56.70;101079.34;5035490;28;20386;-78
2022/12/23 04:48:20;;;;;;;101.93;52.25;;;;;;;3.54;56.97;101084.69;5015859;28;20790;-78
2022/12/23 04:50:45;;;;;;;119.22;62.97;;;;;;;3.48;57.40;101079.91;5033744;28;20393;-78
2022/12/23 04:53:11;;;;;;;144.90;61.67;;;;;;;3.54;57.14;101086.47;5033855;28;20763;-79
2022/12/23 04:55:36;;;;;;;130.13;57.17;;;;;;;3.58;56.89;101077.44;5016966;28;20435;-78
2022/12/23 04:58:02;;;;;;;101.47;46.43;;;;;;;3.56;56.85;101088.03;5034153;28;20375;-79
2022/12/23 05:00:27;;;;;;;100.30;46.75;;;;;;;3.48;56.81;101072.06;5029048;28;20388;-78
2022/12/23 05:02:53;;;;;;;87.40;43.70;;;;;;;3.50;57.15;101091.13;5017081;28;20382;-78
2022/12/23 05:05:18;;;;;;;98.20;47.88;;;;;;;3.54;56.32;101092.56;5031887;28;20378;-78
2022/12/23 05:07:44;;;;;;;105.80;51.03;;;;;;;3.52;56.41;101085.78;5031351;28;20382;-78
2022/12/23 05:10:09;;;;;;;197.00;78.60;;;;;;;3.50;56.43;101077.19;5031245;28;20735;-78
2022/12/23 05:12:35;;;;;;;442.20;154.53;;;;;;;3.52;56.65;101076.13;5028557;28;20440;-78
2022/12/23 05:15:00;;;;;;;168.93;69.40;;;;;;;3.52;56.58;101083.97;5031065;28;20425;-78
2022/12/23 05:17:26;;;;;;;112.70;51.50;;;;;;;3.44;56.53;101088.97;5029845;28;20390;-78
2022/12/23 05:19:51;;;;;;;196.93;121.17;;;;;;;3.43;56.54;101087.28;5029347;28;20732;-79
2022/12/23 05:22:17;;;;;;;124.87;65.27;;;;;;;3.41;56.62;101090.03;5028430;28;20396;-77
2022/12/23 05:24:42;;;;;;;121.93;59.33;;;;;;;3.22;56.79;101085.31;5027865;28;20775;-77
2022/12/23 05:27:08;;;;;;;113.50;57.60;;;;;;;3.21;56.86;101090.66;5027974;28;20382;-78
2022/12/23 05:29:33;;;;;;;130.50;57.70;;;;;;;3.23;56.88;101099.25;5028274;28;20798;-77
2022/12/23 05:31:59;;;;;;;134.35;60.25;;;;;;;3.18;56.93;101093.50;5028349;28;20509;-78
2022/12/23 05:34:24;;;;;;;111.87;54.53;;;;;;;3.18;57.04;101103.97;5027927;28;20781;-78
2022/12/23 05:36:50;;;;;;;108.17;52.50;;;;;;;3.15;57.23;101098.97;5028070;28;20389;-77
2022/12/23 05:39:15;;;;;;;98.00;47.25;;;;;;;3.05;57.44;101104.88;5030713;28;20851;-78
2022/12/23 05:41:41;;;;;;;83.63;41.30;;;;;;;3.06;57.34;101106.56;5024141;28;20403;-77
2022/12/23 05:44:06;;;;;;;74.93;38.10;;;;;;;3.11;57.26;101100.13;5013180;28;20379;-78
2022/12/23 05:46:32;;;;;;;75.00;36.00;;;;;;;3.12;56.83;101099.22;5029033;28;20444;-78
2022/12/23 05:48:57;;;;;;;93.87;44.43;;;;;;;3.05;57.03;101110.09;5032247;28;20428;-78
2022/12/23 05:51:23;;;;;;;77.25;38.97;;;;;;;2.98;57.34;101094.97;5033601;28;20472;-78
2022/12/23 05:53:48;;;;;;;80.15;40.97;;;;;;;3.05;57.02;101097.00;5030425;28;20755;-78
2022/12/23 05:56:13;;;;;;;87.70;42.67;;;;;;;3.04;57.15;101105.84;5033925;28;20390;-79
2022/12/23 05:58:39;;;;;;;80.70;40.73;;;;;;;2.92;57.26;101098.88;5032075;28;20452;-79
2022/12/23 06:01:04;;;;;;;73.93;40.00;;;;;;;2.91;57.49;101098.97;5027938;28;20702;-78
2022/12/23 06:03:30;;;;;;;83.28;42.53;;;;;;;2.95;57.37;101100.41;5025003;28;20397;-77
2022/12/23 06:05:55;;;;;;;74.87;38.60;;;;;;;2.91;57.36;101106.81;5036498;28;20739;-78
2022/12/23 06:08:21;;;;;;;84.50;43.37;;;;;;;2.67;58.18;101110.25;5036471;28;20873;-78
2022/12/23 06:10:46;;;;;;;79.03;43.40;;;;;;;2.67;58.46;101099.78;5036497;28;20400;-77
2022/12/23 06:13:12;;;;;;;93.47;47.47;;;;;;;2.68;58.34;101104.91;5037459;28;20441;-77
2022/12/23 06:15:37;;;;;;;96.47;48.20;;;;;;;2.76;58.23;101106.97;5036888;28;21242;-76
2022/12/23 06:18:03;;;;;;;116.72;59.05;;;;;;;2.77;58.00;101099.97;5036496;28;20751;-76
2022/12/23 06:20:29;;;;;;;125.80;61.20;;;;;;;2.77;58.09;101098.16;5033249;28;20405;-77
2022/12/23 06:22:54;;;;;;;111.82;56.97;;;;;;;2.73;58.05;101119.44;5032371;28;20393;-76
2022/12/23 06:25:20;;;;;;;128.97;64.03;;;;;;;2.67;58.17;101111.09;5016856;28;20441;-77
2022/12/23 06:27:45;;;;;;;127.47;63.37;;;;;;;2.65;58.82;101112.16;5034446;28;20393;-77
2022/12/23 06:30:11;;;;;;;95.47;47.63;;;;;;;2.75;58.65;101123.63;5033722;28;20414;-77
2022/12/23 06:32:37;;;;;;;119.87;60.53;;;;;;;2.68;58.66;101117.16;5024019;28;20409;-78
2022/12/23 06:35:02;;;;;;;122.40;66.20;;;;;;;2.76;58.90;101112.22;5026307;28;20766;-77
2022/12/23 06:37:28;;;;;;;172.97;86.43;;;;;;;2.91;58.18;101101.59;5029551;28;20483;-77
2022/12/23 06:39:53;;;;;;;145.97;76.83;;;;;;;2.99;58.25;101118.44;5021134;28;20686;-78
2022/12/23 06:42:19;;;;;;;130.13;60.90;;;;;;;2.99;57.93;101109.72;5025483;28;20866;-79
2022/12/23 06:44:44;;;;;;;106.38;53.13;;;;;;;2.99;57.94;101113.19;5031548;28;20703;-78
2022/12/23 06:47:10;;;;;;;106.60;51.67;;;;;;;3.03;57.79;101108.56;5034786;28;20393;-79
2022/12/23 06:49:35;;;;;;;101.37;52.63;;;;;;;3.08;57.95;101114.31;5031769;28;20724;-78
2022/12/23 06:52:01;;;;;;;106.07;52.23;;;;;;;3.10;57.97;101116.78;5033708;28;20398;-78
2022/12/23 06:54:26;;;;;;;106.38;52.63;;;;;;;3.14;58.02;101107.78;5024494;28;20484;-78
2022/12/23 06:56:51;;;;;;;100.13;52.45;;;;;;;3.20;58.04;101102.09;5017808;28;20387;-78
2022/12/23 06:59:17;;;;;;;106.33;51.83;;;;;;;3.24;57.91;101103.53;5017875;28;20396;-79
2022/12/23 07:01:42;;;;;;;109.87;53.00;;;;;;;3.22;58.48;101106.28;5018433;28;20398;-78
2022/12/23 07:04:09;;;;;;;103.10;50.80;;;;;;;3.29;57.87;101097.97;5026480;28;20420;-78
2022/12/23 07:06:34;;;;;;;94.63;49.85;;;;;;;3.34;57.97;101103.69;5022906;28;20404;-80
2022/12/23 07:09:00;;;;;;;95.30;47.65;;;;;;;3.35;57.91;101100.97;5030184;28;20383;-78
2022/12/23 07:11:25;;;;;;;96.97;47.13;;;;;;;3.27;58.01;101111.16;5030555;28;20407;-79
2022/12/23 07:13:51;;;;;;;85.47;44.23;;;;;;;3.28;58.30;101110.22;5034181;28;20413;-78
2022/12/23 07:16:17;;;;;;;79.78;44.92;;;;;;;3.39;58.36;101105.03;5026287;28;20405;-79
2022/12/23 07:18:42;;;;;;;90.07;46.70;;;;;;;3.47;58.07;101108.84;5028836;28;20386;-79
2022/12/23 07:21:08;;;;;;;93.57;47.50;;;;;;;3.51;57.86;101105.91;5009501;28;20450;-79
2022/12/23 07:23:34;;;;;;;93.23;48.60;;;;;;;3.50;57.57;101103.41;5027015;28;20964;-78
2022/12/23 07:25:59;;;;;;;99.80;54.73;;;;;;;3.58;57.57;101107.13;5020380;28;20429;-78
2022/12/23 07:28:25;;;;;;;95.40;50.40;;;;;;;3.59;57.98;101100.91;5016865;28;20417;-79
2022/12/23 07:30:50;;;;;;;138.52;68.47;;;;;;;3.69;57.58;101103.69;5019737;28;20416;-78
2022/12/23 07:33:16;;;;;;;111.93;55.78;;;;;;;3.73;57.71;101113.00;5017486;28;20445;-79
2022/12/23 07:35:41;;;;;;;192.80;91.00;;;;;;;3.80;57.66;101103.72;5022307;28;20398;-77
2022/12/23 07:38:07;;;;;;;87.63;46.23;;;;;;;3.76;57.86;101110.16;5020654;28;20788;-79
2022/12/23 07:40:33;;;;;;;95.20;50.35;;;;;;;3.75;58.30;101112.88;5018581;28;20388;-79
2022/12/23 07:42:58;;;;;;;103.23;52.03;;;;;;;3.82;58.14;101117.53;5016430;28;20748;-78
2022/12/23 07:45:28;;;;;;;101.97;51.77;;;;;;;3.67;58.00;101118.69;5019041;28;20406;-80
2022/12/23 07:47:58;;;;;;;101.97;53.33;;;;;;;3.73;58.31;101123.47;5016725;28;20395;-80
2022/12/23 07:50:24;;;;;;;102.30;53.40;;;;;;;3.54;58.71;101120.56;5022063;28;20724;-80
2022/12/23 07:52:51;;;;;;;112.28;58.35;;;;;;;3.55;58.83;101130.09;5034639;28;20882;-81
2022/12/23 07:55:16;;;;;;;108.00;54.72;;;;;;;3.51;58.80;101126.03;5036210;28;20386;-80
2022/12/23 07:57:42;;;;;;;109.70;58.47;;;;;;;3.58;59.21;101128.09;5026232;28;20791;-80
2022/12/23 08:00:11;;;;;;;111.27;56.40;;;;;;;3.73;59.12;101128.72;5035447;28;20382;-79
2022/12/23 08:02:36;;;;;;;122.05;58.08;;;;;;;3.77;58.84;101124.09;5021113;28;20386;-79
2022/12/23 08:05:02;;;;;;;112.32;57.45;;;;;;;3.69;58.77;101127.28;5021914;28;20381;-78
2022/12/23 08:07:27;;;;;;;105.35;52.70;;;;;;;3.78;59.09;101123.13;5021253;28;20482;-79
2022/12/23 08:09:53;;;;;;;99.93;50.77;;;;;;;3.79;58.86;101130.03;5014275;28;20376;-79
2022/12/23 08:12:18;;;;;;;103.07;51.67;;;;;;;3.81;58.96;101130.75;5028472;28;20407;-78
2022/12/23 08:14:44;;;;;;;106.10;54.50;;;;;;;3.74;59.47;101135.63;5021124;28;20415;-81
2022/12/23 08:17:10;;;;;;;104.50;53.53;;;;;;;3.90;59.45;101142.34;5024788;28;20426;-78
2022/12/23 08:19:36;;;;;;;113.57;56.87;;;;;;;4.05;58.93;101128.06;5035495;28;20418;-79
2022/12/23 08:22:02;;;;;;;98.93;51.83;;;;;;;4.14;58.96;101140.50;5033882;28;20393;-78
2022/12/23 08:24:27;;;;;;;98.87;53.53;;;;;;;4.22;59.23;101143.34;5035082;28;20720;-81
2022/12/23 08:26:53;;;;;;;91.67;48.43;;;;;;;4.10;58.59;101149.53;5015133;28;20408;-80
2022/12/23 08:29:19;;;;;;;83.23;43.03;;;;;;;4.08;59.30;101140.13;5033534;28;20389;-79
2022/12/23 08:31:45;;;;;;;78.00;40.33;;;;;;;4.14;59.11;101145.75;5034209;28;20410;-77
2022/12/23 08:34:11;;;;;;;74.78;39.53;;;;;;;4.29;59.03;101143.72;5034074;28;20417;-81
2022/12/23 08:36:38;;;;;;;81.20;41.30;;;;;;;4.51;58.68;101148.13;5033075;28;20790;-81
2022/12/23 08:39:07;;;;;;;77.60;40.78;;;;;;;4.50;58.26;101151.72;5025013;28;20373;-77
2022/12/23 08:41:37;;;;;;;76.07;40.65;;;;;;;4.54;58.13;101150.53;5022994;28;20440;-78
2022/12/23 08:44:03;;;;;;;80.82;44.47;;;;;;;4.58;58.57;101151.94;5015335;28;20380;-78
2022/12/23 08:46:28;;;;;;;76.47;40.77;;;;;;;4.69;58.26;101150.28;5019716;28;20500;-79
2022/12/23 08:49:01;;;;;;;76.72;39.78;;;;;;;4.71;58.23;101148.34;5075612;27;20827;-78
2022/12/23 08:51:27;;;;;;;77.72;39.53;;;;;;;4.80;57.91;101152.88;5068741;28;20453;-78
2022/12/23 08:53:57;;;;;;;72.17;38.63;;;;;;;4.83;57.84;101134.25;5068415;28;20380;-78
2022/12/23 08:56:25;;;;;;;76.50;41.03;;;;;;;5.02;57.42;101138.03;5068687;28;20871;-78
2022/12/23 08:58:52;;;;;;;79.60;43.08;;;;;;;5.19;56.95;101131.44;5065085;28;20419;-79
2022/12/23 09:01:19;;;;;;;89.55;45.70;;;;;;;5.34;56.82;101125.72;5057986;28;20383;-78
2022/12/23 09:03:46;;;;;;;154.57;76.38;;;;;;;5.40;56.92;101121.75;5059352;28;20388;-80
2022/12/23 09:06:13;;;;;;;79.60;44.28;;;;;;;5.50;56.83;101125.31;5066310;28;20873;-78
2022/12/23 09:08:39;;;;;;;92.67;47.23;;;;;;;5.57;56.70;101114.31;5065772;28;20415;-78
2022/12/23 09:11:08;;;;;;;159.52;85.53;;;;;;;5.72;56.73;101120.91;5066985;28;20380;-78
2022/12/23 09:13:33;;;;;;;88.03;46.40;;;;;;;5.70;56.58;101110.50;5069157;28;20380;-79
2022/12/23 09:15:59;;;;;;;88.00;46.70;;;;;;;5.68;56.79;101122.94;5068277;28;20387;-78
2022/12/23 09:18:25;;;;;;;85.23;46.37;;;;;;;5.75;56.69;101128.53;5059957;28;20378;-78
2022/12/23 09:20:57;;;;;;;90.60;48.83;;;;;;;5.84;56.82;101113.78;5047623;28;20380;-78
2022/12/23 09:23:22;;;;;;;87.03;52.83;;;;;;;6.01;56.28;101109.75;5064447;28;20456;-79
2022/12/23 09:25:48;;;;;;;88.47;50.27;;;;;;;6.08;56.46;101095.94;5065677;28;20384;-78
2022/12/23 09:28:13;;;;;;;94.85;49.50;;;;;;;6.11;56.21;101097.47;5065702;28;20403;-78
2022/12/23 09:30:39;;;;;;;93.63;50.95;;;;;;;6.25;56.01;101104.19;5067671;28;20399;-78
2022/12/23 09:33:04;;;;;;;136.03;75.97;;;;;;;6.32;56.07;101103.53;5066977;28;20899;-77
2022/12/23 09:35:30;;;;;;;93.83;50.57;;;;;;;6.37;56.13;101103.13;5066556;28;20459;-78
2022/12/23 09:37:55;;;;;;;101.93;59.25;;;;;;;6.43;55.93;101104.41;5066671;28;20379;-79
2022/12/23 09:40:21;;;;;;;115.73;75.93;;;;;;;6.50;55.66;101093.19;5062905;28;20722;-81
2022/12/23 09:43:16;;;;;;;102.87;59.70;;;;;;;6.66;55.62;101097.09;5066146;28;20806;-77
2022/12/23 09:46:17;;;;;;;93.20;52.58;;;;;;;6.80;55.49;101103.81;5059686;28;20376;-79
2022/12/23 09:48:54;;;;;;;102.50;55.50;;;;;;;6.85;55.53;101096.31;5064950;28;20404;-77
2022/12/23 09:51:22;;;;;;;98.00;55.28;;;;;;;6.96;55.12;101090.94;5065552;28;20386;-78
2022/12/23 09:54:32;;;;;;;100.57;54.57;;;;;;;6.98;55.27;101088.16;5052345;28;20734;-75
2022/12/23 09:57:01;;;;;;;98.53;54.58;;;;;;;7.08;54.97;101091.66;5050946;28;20868;-78
2022/12/23 09:59:36;;;;;;;114.70;76.85;;;;;;;7.19;54.74;101091.50;5057315;28;20373;-79
2022/12/23 10:02:20;;;;;;;104.07;62.90;;;;;;;7.34;54.51;101096.34;5036836;28;20460;-77
2022/12/23 10:05:01;;;;;;;100.85;57.97;;;;;;;7.37;54.78;101086.38;5050458;28;20455;-79
2022/12/23 10:07:39;;;;;;;100.93;54.60;;;;;;;7.44;54.54;101086.66;5048145;28;20435;-79
2022/12/23 10:10:15;;;;;;;97.80;54.93;;;;;;;7.49;54.47;101084.41;5052057;28;20377;-78
2022/12/23 10:12:45;;;;;;;108.32;63.50;;;;;;;7.56;54.22;101082.03;5050915;28;21362;-77
2022/12/23 10:15:48;;;;;;;95.35;56.33;;;;;;;7.57;54.00;101081.06;5050436;28;20426;-78
2022/12/23 10:18:30;;;;;;;208.52;97.30;;;;;;;7.72;54.00;101071.72;5050494;28;20368;-77
2022/12/23 10:21:15;;;;;;;129.38;72.88;;;;;;;7.83;54.20;101061.03;5051076;28;20408;-78
2022/12/23 10:23:45;;;;;;;192.13;101.60;;;;;;;7.97;53.75;101057.06;5039923;28;20380;-78
2022/12/23 10:26:24;;;;;;;131.10;70.97;;;;;;;8.04;53.93;101060.78;5049864;28;20410;-78
2022/12/23 10:28:57;;;;;;;136.77;75.25;;;;;;;8.04;53.59;101059.97;5051705;28;20687;-78
2022/12/23 10:31:38;;;;;;;136.00;76.22;;;;;;;8.17;53.36;101054.34;5045039;28;20397;-79
2022/12/23 10:34:18;;;;;;;186.13;109.97;;;;;;;8.22;53.40;101047.66;5049421;28;20485;-77
2022/12/23 10:36:48;;;;;;;143.90;81.30;;;;;;;8.29;52.85;101045.25;5049954;28;20873;-77
2022/12/23 10:39:42;;;;;;;155.63;89.35;;;;;;;8.37;53.34;101029.53;5048013;28;20377;-77
2022/12/23 10:42:37;;;;;;;157.68;84.03;;;;;;;8.45;53.54;101030.63;5050974;28;20464;-78
2022/12/23 10:45:17;;;;;;;142.77;77.03;;;;;;;8.50;53.47;101026.56;5051618;28;20407;-78
2022/12/23 10:48:19;;;;;;;151.40;87.30;;;;;;;8.62;53.17;101024.50;5051197;28;20463;-78
2022/12/23 10:50:51;;;;;;;150.35;82.68;;;;;;;8.77;53.32;101023.03;5052653;28;20404;-81
2022/12/23 10:53:29;;;;;;;114.57;64.25;;;;;;;9.01;54.99;101021.59;5072124;28;20456;-83
2022/12/23 10:55:56;;;;;;;92.13;52.33;;;;;;;9.70;54.06;101016.44;5054431;28;20491;-80
2022/12/23 10:58:22;;;;;;;89.30;53.15;;;;;;;9.84;53.51;100999.16;5051623;28;20472;-82
2022/12/23 11:00:53;;;;;;;93.57;53.00;;;;;;;9.86;51.93;101010.41;5051430;28;20448;-79
2022/12/23 11:03:32;;;;;;;114.95;75.75;;;;;;;9.67;52.14;100995.59;5049464;28;20845;-78
2022/12/23 11:06:00;;;;;;;104.28;65.45;;;;;;;9.70;52.11;101000.56;5049820;28;20381;-78
2022/12/23 11:08:30;;;;;;;124.40;82.87;;;;;;;9.76;52.38;100992.03;5052668;28;20490;-78
2022/12/23 11:10:57;;;;;;;97.90;58.05;;;;;;;9.83;52.02;100985.09;5050557;28;20376;-79
2022/12/23 11:13:31;;;;;;;125.75;69.63;;;;;;;9.84;51.85;100989.38;5044347;28;20382;-77
2022/12/23 11:16:12;;;;;;;145.43;91.17;;;;;;;9.88;51.44;100985.44;5043686;28;20464;-79
2022/12/23 11:18:37;;;;;;;122.93;71.67;;;;;;;9.95;51.34;100986.47;5042965;28;20778;-79
2022/12/23 11:21:05;;;;;;;114.47;63.77;;;;;;;9.88;51.32;100987.25;5045931;28;20929;-78
2022/12/23 11:23:34;;;;;;;105.53;60.30;;;;;;;9.65;50.40;100990.47;5038232;28;20383;-79
2022/12/23 11:26:10;;;;;;;118.20;62.83;;;;;;;9.68;51.26;100986.66;5040276;28;20382;-79
2022/12/23 11:28:38;;;;;;;98.35;57.92;;;;;;;9.74;50.60;100983.38;5042085;28;20404;-80
2022/12/23 11:31:09;;;;;;;96.28;57.08;;;;;;;9.79;50.67;100985.56;5051028;28;20373;-78
2022/12/23 11:34:02;;;;;;;104.00;66.30;;;;;;;9.81;50.97;100973.81;5052063;28;20384;-78
2022/12/23 11:36:29;;;;;;;99.38;55.88;;;;;;;9.90;50.91;100966.75;5046248;28;20362;-78
2022/12/23 11:39:16;;;;;;;94.57;53.95;;;;;;;9.94;50.75;100971.56;5043231;28;20384;-79
2022/12/23 11:41:46;;;;;;;87.80;52.40;;;;;;;10.04;51.21;100967.97;5051542;28;20377;-78
2022/12/23 11:44:20;;;;;;;101.15;62.42;;;;;;;10.08;51.38;100959.56;5039129;28;20440;-78
2022/12/23 11:46:45;;;;;;;103.00;56.80;;;;;;;10.12;50.96;100952.94;5049092;28;20380;-76
2022/12/23 11:49:24;;;;;;;101.63;60.70;;;;;;;10.11;50.82;100951.25;5032080;28;20827;-79
2022/12/23 11:52:03;;;;;;;101.22;55.78;;;;;;;10.08;50.81;100959.56;5031226;28;20385;-79
2022/12/23 11:54:30;;;;;;;92.47;54.13;;;;;;;10.25;51.25;100952.47;5031516;28;20385;-77
2022/12/23 11:56:57;;;;;;;95.27;52.27;;;;;;;10.32;51.03;100948.22;5047027;28;20373;-79
2022/12/23 11:59:33;;;;;;;92.93;53.15;;;;;;;10.44;50.84;100962.00;5044783;28;20379;-77